sensor_id;sensor_type;location;lat;lon;timestamp;temperature;humidity
2657;DHT22;1338;48.176;11.792;2023-03-11T00:00:46;2.20;1.00
2657;DHT22;1338;48.176;11.792;2023-03-11T00:03:16;2.10;1.00
2657;DHT22;1338;48.176;11.792;2023-03-11T00:05:45;2.20;1.00
2657;DHT22;1338;48.176;11.792;2023-03-11T00:08:15;2.10;1.00
2657;DHT22;1338;48.176;11.792;2023-03-11T00:10:46;2.10;1.00
2657;DHT22;1338;48.176;11.792;2023-03-11T00:13:16;2.00;1.00
2657;DHT22;1338;48.176;11.792;2023-03-11T00:15:48;2.10;1.00
2657;DHT22;1338;48.176;11.792;2023-03-11T00:18:17;1.90;1.00
2657;DHT22;1338;48.176;11.792;2023-03-11T00:20:46;1.90;1.00
2657;DHT22;1338;48.176;11.792;2023-03-11T00:23:16;1.80;1.00
2657;DHT22;1338;48.176;11.792;2023-03-11T00:25:45;1.80;1.00
2657;DHT22;1338;48.176;11.792;2023-03-11T00:28:15;1.90;1.00
2657;DHT22;1338;48.176;11.792;2023-03-11T00:30:45;1.80;1.00
2657;DHT22;1338;48.176;11.792;2023-03-11T00:33:15;1.60;1.00
2657;DHT22;1338;48.176;11.792;2023-03-11T00:35:43;1.60;1.00
2657;DHT22;1338;48.176;11.792;2023-03-11T00:38:14;1.70;1.00
2657;DHT22;1338;48.176;11.792;2023-03-11T00:40:45;1.60;1.00
2657;DHT22;1338;48.176;11.792;2023-03-11T00:43:16;1.60;1.00
2657;DHT22;1338;48.176;11.792;2023-03-11T00:45:45;1.60;1.00
2657;DHT22;1338;48.176;11.792;2023-03-11T00:48:14;1.70;1.00
2657;DHT22;1338;48.176;11.792;2023-03-11T00:50:43;1.50;1.00
2657;DHT22;1338;48.176;11.792;2023-03-11T00:53:11;1.40;1.00
2657;DHT22;1338;48.176;11.792;2023-03-11T00:55:40;1.60;1.00
2657;DHT22;1338;48.176;11.792;2023-03-11T00:58:11;1.60;1.00
2657;DHT22;1338;48.176;11.792;2023-03-11T01:00:48;1.50;1.00
2657;DHT22;1338;48.176;11.792;2023-03-11T01:03:16;1.50;1.00
2657;DHT22;1338;48.176;11.792;2023-03-11T01:05:45;1.60;1.00
2657;DHT22;1338;48.176;11.792;2023-03-11T01:08:14;1.50;1.00
2657;DHT22;1338;48.176;11.792;2023-03-11T01:10:42;1.60;1.00
2657;DHT22;1338;48.176;11.792;2023-03-11T01:13:12;1.50;1.00
2657;DHT22;1338;48.176;11.792;2023-03-11T01:15:41;1.50;1.00
2657;DHT22;1338;48.176;11.792;2023-03-11T01:18:12;1.30;1.00
2657;DHT22;1338;48.176;11.792;2023-03-11T01:20:42;1.20;1.00
2657;DHT22;1338;48.176;11.792;2023-03-11T01:23:11;1.50;1.00
2657;DHT22;1338;48.176;11.792;2023-03-11T01:25:40;1.20;1.00
2657;DHT22;1338;48.176;11.792;2023-03-11T01:28:09;1.10;1.00
2657;DHT22;1338;48.176;11.792;2023-03-11T01:30:39;1.20;1.00
2657;DHT22;1338;48.176;11.792;2023-03-11T01:33:15;1.10;1.00
2657;DHT22;1338;48.176;11.792;2023-03-11T01:35:45;1.20;1.00
2657;DHT22;1338;48.176;11.792;2023-03-11T01:38:15;1.10;1.00
2657;DHT22;1338;48.176;11.792;2023-03-11T01:40:46;1.10;1.00
2657;DHT22;1338;48.176;11.792;2023-03-11T01:43:36;1.30;1.00
2657;DHT22;1338;48.176;11.792;2023-03-11T01:46:14;1.30;1.00
2657;DHT22;1338;48.176;11.792;2023-03-11T01:48:48;1.30;1.00
2657;DHT22;1338;48.176;11.792;2023-03-11T01:51:22;1.20;1.00
2657;DHT22;1338;48.176;11.792;2023-03-11T01:53:52;1.00;1.00
2657;DHT22;1338;48.176;11.792;2023-03-11T01:56:23;1.20;1.00
2657;DHT22;1338;48.176;11.792;2023-03-11T01:58:53;1.30;1.00
2657;DHT22;1338;48.176;11.792;2023-03-11T02:01:23;1.20;1.00
2657;DHT22;1338;48.176;11.792;2023-03-11T02:03:54;1.00;1.00
2657;DHT22;1338;48.176;11.792;2023-03-11T02:06:24;1.00;1.00
2657;DHT22;1338;48.176;11.792;2023-03-11T02:08:54;1.10;1.00
2657;DHT22;1338;48.176;11.792;2023-03-11T02:11:27;0.90;1.00
2657;DHT22;1338;48.176;11.792;2023-03-11T02:14:00;1.00;1.00
2657;DHT22;1338;48.176;11.792;2023-03-11T02:16:31;1.00;1.00
2657;DHT22;1338;48.176;11.792;2023-03-11T02:19:11;1.00;1.00
2657;DHT22;1338;48.176;11.792;2023-03-11T02:21:44;0.90;1.00
2657;DHT22;1338;48.176;11.792;2023-03-11T02:24:17;1.00;1.00
2657;DHT22;1338;48.176;11.792;2023-03-11T02:26:53;1.10;1.00
2657;DHT22;1338;48.176;11.792;2023-03-11T02:29:24;0.90;1.00
2657;DHT22;1338;48.176;11.792;2023-03-11T02:31:54;0.80;1.00
2657;DHT22;1338;48.176;11.792;2023-03-11T02:34:27;0.90;1.00
2657;DHT22;1338;48.176;11.792;2023-03-11T02:36:57;0.90;1.00
2657;DHT22;1338;48.176;11.792;2023-03-11T02:39:29;1.00;1.00
2657;DHT22;1338;48.176;11.792;2023-03-11T02:42:05;0.90;1.00
2657;DHT22;1338;48.176;11.792;2023-03-11T02:44:35;0.80;1.00
2657;DHT22;1338;48.176;11.792;2023-03-11T02:47:04;1.00;1.00
2657;DHT22;1338;48.176;11.792;2023-03-11T02:49:35;0.80;1.00
2657;DHT22;1338;48.176;11.792;2023-03-11T02:52:04;0.70;1.00
2657;DHT22;1338;48.176;11.792;2023-03-11T02:54:33;0.80;1.00
2657;DHT22;1338;48.176;11.792;2023-03-11T02:57:04;0.80;1.00
2657;DHT22;1338;48.176;11.792;2023-03-11T02:59:33;0.70;1.00
2657;DHT22;1338;48.176;11.792;2023-03-11T03:02:03;0.80;1.00
2657;DHT22;1338;48.176;11.792;2023-03-11T03:04:32;0.60;1.00
2657;DHT22;1338;48.176;11.792;2023-03-11T03:07:01;0.70;1.00
2657;DHT22;1338;48.176;11.792;2023-03-11T03:09:30;0.70;1.00
2657;DHT22;1338;48.176;11.792;2023-03-11T03:11:59;0.80;1.00
2657;DHT22;1338;48.176;11.792;2023-03-11T03:14:32;0.70;1.00
2657;DHT22;1338;48.176;11.792;2023-03-11T03:17:01;0.70;1.00
2657;DHT22;1338;48.176;11.792;2023-03-11T03:19:30;0.70;1.00
2657;DHT22;1338;48.176;11.792;2023-03-11T03:21:59;0.60;1.00
2657;DHT22;1338;48.176;11.792;2023-03-11T03:24:28;0.50;1.00
2657;DHT22;1338;48.176;11.792;2023-03-11T03:26:57;0.40;1.00
2657;DHT22;1338;48.176;11.792;2023-03-11T03:29:25;0.50;1.00
2657;DHT22;1338;48.176;11.792;2023-03-11T03:31:55;0.40;1.00
2657;DHT22;1338;48.176;11.792;2023-03-11T03:34:25;0.50;1.00
2657;DHT22;1338;48.176;11.792;2023-03-11T03:36:54;0.40;1.00
2657;DHT22;1338;48.176;11.792;2023-03-11T03:39:23;0.30;1.00
2657;DHT22;1338;48.176;11.792;2023-03-11T03:41:52;0.40;1.00
2657;DHT22;1338;48.176;11.792;2023-03-11T03:44:23;0.40;1.00
2657;DHT22;1338;48.176;11.792;2023-03-11T03:46:52;0.30;1.00
2657;DHT22;1338;48.176;11.792;2023-03-11T03:49:22;0.40;1.00
2657;DHT22;1338;48.176;11.792;2023-03-11T03:51:52;0.30;1.00
2657;DHT22;1338;48.176;11.792;2023-03-11T03:54:28;0.30;1.00
2657;DHT22;1338;48.176;11.792;2023-03-11T03:56:57;0.40;1.00
2657;DHT22;1338;48.176;11.792;2023-03-11T03:59:27;0.30;1.00
2657;DHT22;1338;48.176;11.792;2023-03-11T04:01:58;0.40;1.00
2657;DHT22;1338;48.176;11.792;2023-03-11T04:04:31;0.30;1.00
2657;DHT22;1338;48.176;11.792;2023-03-11T04:07:02;0.50;1.00
2657;DHT22;1338;48.176;11.792;2023-03-11T04:09:31;0.30;1.00
2657;DHT22;1338;48.176;11.792;2023-03-11T04:12:00;0.40;1.00
2657;DHT22;1338;48.176;11.792;2023-03-11T04:14:34;0.30;1.00
2657;DHT22;1338;48.176;11.792;2023-03-11T04:17:03;0.30;1.00
2657;DHT22;1338;48.176;11.792;2023-03-11T04:19:34;0.20;1.00
2657;DHT22;1338;48.176;11.792;2023-03-11T04:22:03;0.40;1.00
2657;DHT22;1338;48.176;11.792;2023-03-11T04:24:32;0.30;1.00
2657;DHT22;1338;48.176;11.792;2023-03-11T04:27:01;0.30;1.00
2657;DHT22;1338;48.176;11.792;2023-03-11T04:29:31;0.20;1.00
2657;DHT22;1338;48.176;11.792;2023-03-11T04:32:01;0.10;1.00
2657;DHT22;1338;48.176;11.792;2023-03-11T04:34:30;0.10;1.00
2657;DHT22;1338;48.176;11.792;2023-03-11T04:37:01;0.20;1.00
2657;DHT22;1338;48.176;11.792;2023-03-11T04:39:33;0.10;1.00
2657;DHT22;1338;48.176;11.792;2023-03-11T04:42:04;0.20;1.00
2657;DHT22;1338;48.176;11.792;2023-03-11T04:44:34;0.20;1.00
2657;DHT22;1338;48.176;11.792;2023-03-11T04:47:04;0.20;1.00
2657;DHT22;1338;48.176;11.792;2023-03-11T04:49:34;0.30;1.00
2657;DHT22;1338;48.176;11.792;2023-03-11T04:52:06;0.40;1.00
2657;DHT22;1338;48.176;11.792;2023-03-11T04:54:35;0.40;1.00
2657;DHT22;1338;48.176;11.792;2023-03-11T04:57:04;0.40;1.00
2657;DHT22;1338;48.176;11.792;2023-03-11T04:59:34;0.40;1.00
2657;DHT22;1338;48.176;11.792;2023-03-11T05:02:04;0.40;1.00
2657;DHT22;1338;48.176;11.792;2023-03-11T05:04:33;0.50;1.00
2657;DHT22;1338;48.176;11.792;2023-03-11T05:07:02;0.60;1.00
2657;DHT22;1338;48.176;11.792;2023-03-11T05:09:33;0.60;1.00
2657;DHT22;1338;48.176;11.792;2023-03-11T05:12:03;0.60;1.00
2657;DHT22;1338;48.176;11.792;2023-03-11T05:14:34;0.50;1.00
2657;DHT22;1338;48.176;11.792;2023-03-11T05:17:04;0.50;1.00
2657;DHT22;1338;48.176;11.792;2023-03-11T05:19:33;0.50;1.00
2657;DHT22;1338;48.176;11.792;2023-03-11T05:22:08;0.50;1.00
2657;DHT22;1338;48.176;11.792;2023-03-11T05:24:38;0.50;1.00
2657;DHT22;1338;48.176;11.792;2023-03-11T05:27:08;0.50;1.00
2657;DHT22;1338;48.176;11.792;2023-03-11T05:29:37;0.50;1.00
2657;DHT22;1338;48.176;11.792;2023-03-11T05:32:09;0.50;1.00
2657;DHT22;1338;48.176;11.792;2023-03-11T05:34:40;0.50;1.00
2657;DHT22;1338;48.176;11.792;2023-03-11T05:37:09;0.40;1.00
2657;DHT22;1338;48.176;11.792;2023-03-11T05:39:40;0.40;1.00
2657;DHT22;1338;48.176;11.792;2023-03-11T05:42:09;0.30;1.00
2657;DHT22;1338;48.176;11.792;2023-03-11T05:44:39;0.30;1.00
2657;DHT22;1338;48.176;11.792;2023-03-11T05:47:08;0.30;1.00
2657;DHT22;1338;48.176;11.792;2023-03-11T05:49:37;0.30;1.00
2657;DHT22;1338;48.176;11.792;2023-03-11T05:52:06;0.30;1.00
2657;DHT22;1338;48.176;11.792;2023-03-11T05:54:36;0.20;1.00
2657;DHT22;1338;48.176;11.792;2023-03-11T05:57:07;0.10;1.00
2657;DHT22;1338;48.176;11.792;2023-03-11T05:59:36;0.20;1.00
2657;DHT22;1338;48.176;11.792;2023-03-11T06:02:05;0.10;1.00
2657;DHT22;1338;48.176;11.792;2023-03-11T06:04:34;0.10;1.00
2657;DHT22;1338;48.176;11.792;2023-03-11T06:07:03;0.10;1.00
2657;DHT22;1338;48.176;11.792;2023-03-11T06:09:35;0.10;1.00
2657;DHT22;1338;48.176;11.792;2023-03-11T06:12:10;0.10;1.00
2657;DHT22;1338;48.176;11.792;2023-03-11T06:14:52;0.00;1.00
2657;DHT22;1338;48.176;11.792;2023-03-11T06:17:21;0.00;1.00
2657;DHT22;1338;48.176;11.792;2023-03-11T06:19:50;0.00;1.00
2657;DHT22;1338;48.176;11.792;2023-03-11T06:22:20;0.00;1.00
2657;DHT22;1338;48.176;11.792;2023-03-11T06:24:50;0.00;1.00
2657;DHT22;1338;48.176;11.792;2023-03-11T06:27:21;0.00;1.00
2657;DHT22;1338;48.176;11.792;2023-03-11T06:29:51;0.00;1.00
2657;DHT22;1338;48.176;11.792;2023-03-11T06:32:24;0.00;1.00
2657;DHT22;1338;48.176;11.792;2023-03-11T06:34:53;0.00;1.00
2657;DHT22;1338;48.176;11.792;2023-03-11T06:37:22;0.00;1.00
2657;DHT22;1338;48.176;11.792;2023-03-11T06:39:52;0.00;1.00
2657;DHT22;1338;48.176;11.792;2023-03-11T06:42:25;0.00;1.00
2657;DHT22;1338;48.176;11.792;2023-03-11T06:44:56;0.00;1.00
2657;DHT22;1338;48.176;11.792;2023-03-11T06:47:26;0.00;1.00
2657;DHT22;1338;48.176;11.792;2023-03-11T06:49:55;0.00;1.00
2657;DHT22;1338;48.176;11.792;2023-03-11T06:52:32;0.00;1.00
2657;DHT22;1338;48.176;11.792;2023-03-11T06:55:02;0.00;1.00
2657;DHT22;1338;48.176;11.792;2023-03-11T06:57:33;0.00;1.00
2657;DHT22;1338;48.176;11.792;2023-03-11T07:00:07;0.00;1.00
2657;DHT22;1338;48.176;11.792;2023-03-11T07:02:46;0.00;1.00
2657;DHT22;1338;48.176;11.792;2023-03-11T07:05:17;0.00;1.00
2657;DHT22;1338;48.176;11.792;2023-03-11T07:07:47;0.00;1.00
2657;DHT22;1338;48.176;11.792;2023-03-11T07:10:16;0.00;1.00
2657;DHT22;1338;48.176;11.792;2023-03-11T07:12:47;0.10;1.00
2657;DHT22;1338;48.176;11.792;2023-03-11T07:15:16;0.10;1.00
2657;DHT22;1338;48.176;11.792;2023-03-11T07:17:46;0.10;1.00
2657;DHT22;1338;48.176;11.792;2023-03-11T07:20:15;0.10;1.00
2657;DHT22;1338;48.176;11.792;2023-03-11T07:22:44;0.10;1.00
2657;DHT22;1338;48.176;11.792;2023-03-11T07:25:13;0.10;1.00
2657;DHT22;1338;48.176;11.792;2023-03-11T07:27:42;0.20;1.00
2657;DHT22;1338;48.176;11.792;2023-03-11T07:30:13;0.10;1.00
2657;DHT22;1338;48.176;11.792;2023-03-11T07:32:41;0.20;1.00
2657;DHT22;1338;48.176;11.792;2023-03-11T07:35:10;0.20;1.00
2657;DHT22;1338;48.176;11.792;2023-03-11T07:37:40;0.30;1.00
2657;DHT22;1338;48.176;11.792;2023-03-11T07:40:10;0.20;1.00
2657;DHT22;1338;48.176;11.792;2023-03-11T07:42:39;0.40;1.00
2657;DHT22;1338;48.176;11.792;2023-03-11T07:45:12;0.30;1.00
2657;DHT22;1338;48.176;11.792;2023-03-11T07:47:40;0.20;1.00
2657;DHT22;1338;48.176;11.792;2023-03-11T07:50:10;0.20;1.00
2657;DHT22;1338;48.176;11.792;2023-03-11T07:52:38;0.30;1.00
2657;DHT22;1338;48.176;11.792;2023-03-11T07:55:07;0.40;1.00
2657;DHT22;1338;48.176;11.792;2023-03-11T07:57:37;0.50;1.00
2657;DHT22;1338;48.176;11.792;2023-03-11T08:00:07;0.60;1.00
2657;DHT22;1338;48.176;11.792;2023-03-11T08:02:40;0.60;1.00
2657;DHT22;1338;48.176;11.792;2023-03-11T08:05:10;0.70;1.00
2657;DHT22;1338;48.176;11.792;2023-03-11T08:07:38;0.40;1.00
2657;DHT22;1338;48.176;11.792;2023-03-11T08:10:08;0.40;1.00
2657;DHT22;1338;48.176;11.792;2023-03-11T08:12:39;0.50;1.00
2657;DHT22;1338;48.176;11.792;2023-03-11T08:15:08;0.40;1.00
2657;DHT22;1338;48.176;11.792;2023-03-11T08:17:37;0.50;1.00
2657;DHT22;1338;48.176;11.792;2023-03-11T08:20:10;0.70;1.00
2657;DHT22;1338;48.176;11.792;2023-03-11T08:22:40;0.50;1.00
2657;DHT22;1338;48.176;11.792;2023-03-11T08:25:24;0.60;1.00
2657;DHT22;1338;48.176;11.792;2023-03-11T08:27:53;0.90;1.00
2657;DHT22;1338;48.176;11.792;2023-03-11T08:30:22;0.60;1.00
2657;DHT22;1338;48.176;11.792;2023-03-11T08:32:51;0.60;1.00
2657;DHT22;1338;48.176;11.792;2023-03-11T08:35:22;0.60;1.00
2657;DHT22;1338;48.176;11.792;2023-03-11T08:37:52;0.60;1.00
2657;DHT22;1338;48.176;11.792;2023-03-11T08:40:21;0.70;1.00
2657;DHT22;1338;48.176;11.792;2023-03-11T08:42:50;0.70;1.00
2657;DHT22;1338;48.176;11.792;2023-03-11T08:45:19;0.70;1.00
2657;DHT22;1338;48.176;11.792;2023-03-11T08:47:49;0.40;1.00
2657;DHT22;1338;48.176;11.792;2023-03-11T08:50:19;0.50;1.00
2657;DHT22;1338;48.176;11.792;2023-03-11T08:52:49;0.80;1.00
2657;DHT22;1338;48.176;11.792;2023-03-11T08:55:18;0.90;1.00
2657;DHT22;1338;48.176;11.792;2023-03-11T08:57:53;0.70;1.00
2657;DHT22;1338;48.176;11.792;2023-03-11T09:00:22;1.00;1.00
2657;DHT22;1338;48.176;11.792;2023-03-11T09:02:51;1.30;1.00
2657;DHT22;1338;48.176;11.792;2023-03-11T09:05:20;1.00;1.00
2657;DHT22;1338;48.176;11.792;2023-03-11T09:07:51;1.30;1.00
2657;DHT22;1338;48.176;11.792;2023-03-11T09:10:20;1.40;1.00
2657;DHT22;1338;48.176;11.792;2023-03-11T09:12:49;1.30;1.00
2657;DHT22;1338;48.176;11.792;2023-03-11T09:15:17;1.10;1.00
2657;DHT22;1338;48.176;11.792;2023-03-11T09:17:46;1.20;1.00
2657;DHT22;1338;48.176;11.792;2023-03-11T09:20:15;1.30;1.00
2657;DHT22;1338;48.176;11.792;2023-03-11T09:22:45;1.20;1.00
2657;DHT22;1338;48.176;11.792;2023-03-11T09:25:15;1.10;1.00
2657;DHT22;1338;48.176;11.792;2023-03-11T09:27:44;1.40;1.00
2657;DHT22;1338;48.176;11.792;2023-03-11T09:30:13;1.80;1.00
2657;DHT22;1338;48.176;11.792;2023-03-11T09:32:42;2.30;1.00
2657;DHT22;1338;48.176;11.792;2023-03-11T09:35:12;2.50;1.00
2657;DHT22;1338;48.176;11.792;2023-03-11T09:37:40;2.20;1.00
2657;DHT22;1338;48.176;11.792;2023-03-11T09:40:12;2.00;1.00
2657;DHT22;1338;48.176;11.792;2023-03-11T09:42:48;2.00;1.00
2657;DHT22;1338;48.176;11.792;2023-03-11T09:45:22;2.00;1.00
2657;DHT22;1338;48.176;11.792;2023-03-11T09:48:13;2.00;1.00
2657;DHT22;1338;48.176;11.792;2023-03-11T09:50:52;2.40;1.00
2657;DHT22;1338;48.176;11.792;2023-03-11T09:53:30;2.20;1.00
2657;DHT22;1338;48.176;11.792;2023-03-11T09:56:06;1.70;1.00
2657;DHT22;1338;48.176;11.792;2023-03-11T09:58:40;1.70;1.00
2657;DHT22;1338;48.176;11.792;2023-03-11T10:01:19;2.00;1.00
2657;DHT22;1338;48.176;11.792;2023-03-11T10:03:50;1.90;1.00
2657;DHT22;1338;48.176;11.792;2023-03-11T10:06:22;2.10;1.00
2657;DHT22;1338;48.176;11.792;2023-03-11T10:08:58;1.90;1.00
2657;DHT22;1338;48.176;11.792;2023-03-11T10:11:46;2.30;1.00
2657;DHT22;1338;48.176;11.792;2023-03-11T10:14:43;2.70;1.00
2657;DHT22;1338;48.176;11.792;2023-03-11T10:17:25;2.10;1.00
2657;DHT22;1338;48.176;11.792;2023-03-11T10:20:02;3.00;1.00
2657;DHT22;1338;48.176;11.792;2023-03-11T10:22:39;3.10;1.00
2657;DHT22;1338;48.176;11.792;2023-03-11T10:25:15;2.80;1.00
2657;DHT22;1338;48.176;11.792;2023-03-11T10:27:48;3.20;1.00
2657;DHT22;1338;48.176;11.792;2023-03-11T10:30:24;3.10;1.00
2657;DHT22;1338;48.176;11.792;2023-03-11T10:33:00;3.30;1.00
2657;DHT22;1338;48.176;11.792;2023-03-11T10:35:36;2.90;1.00
2657;DHT22;1338;48.176;11.792;2023-03-11T10:38:13;3.00;1.00
2657;DHT22;1338;48.176;11.792;2023-03-11T10:40:43;3.40;1.00
2657;DHT22;1338;48.176;11.792;2023-03-11T10:43:15;2.80;1.00
2657;DHT22;1338;48.176;11.792;2023-03-11T10:45:47;2.80;1.00
2657;DHT22;1338;48.176;11.792;2023-03-11T10:48:18;2.90;1.00
2657;DHT22;1338;48.176;11.792;2023-03-11T10:50:53;2.50;1.00
2657;DHT22;1338;48.176;11.792;2023-03-11T10:53:22;2.50;1.00
2657;DHT22;1338;48.176;11.792;2023-03-11T10:55:52;3.00;1.00
2657;DHT22;1338;48.176;11.792;2023-03-11T10:58:24;3.00;1.00
2657;DHT22;1338;48.176;11.792;2023-03-11T11:01:04;3.30;1.00
2657;DHT22;1338;48.176;11.792;2023-03-11T11:03:33;3.70;1.00
2657;DHT22;1338;48.176;11.792;2023-03-11T11:06:04;4.00;1.00
2657;DHT22;1338;48.176;11.792;2023-03-11T11:08:34;3.80;1.00
2657;DHT22;1338;48.176;11.792;2023-03-11T11:11:09;3.50;1.00
2657;DHT22;1338;48.176;11.792;2023-03-11T11:13:55;3.90;1.00
2657;DHT22;1338;48.176;11.792;2023-03-11T11:16:26;3.30;1.00
2657;DHT22;1338;48.176;11.792;2023-03-11T11:18:59;3.00;1.00
2657;DHT22;1338;48.176;11.792;2023-03-11T11:21:32;3.50;1.00
2657;DHT22;1338;48.176;11.792;2023-03-11T11:24:13;3.70;1.00
2657;DHT22;1338;48.176;11.792;2023-03-11T11:27:03;3.00;1.00
2657;DHT22;1338;48.176;11.792;2023-03-11T11:29:32;2.60;1.00
2657;DHT22;1338;48.176;11.792;2023-03-11T11:32:20;2.70;1.00
2657;DHT22;1338;48.176;11.792;2023-03-11T11:34:57;3.10;1.00
2657;DHT22;1338;48.176;11.792;2023-03-11T11:37:29;3.00;1.00
2657;DHT22;1338;48.176;11.792;2023-03-11T11:40:00;3.10;1.00
2657;DHT22;1338;48.176;11.792;2023-03-11T11:42:39;3.10;1.00
2657;DHT22;1338;48.176;11.792;2023-03-11T11:45:15;2.90;1.00
2657;DHT22;1338;48.176;11.792;2023-03-11T11:47:48;2.90;1.00
2657;DHT22;1338;48.176;11.792;2023-03-11T11:50:25;3.90;1.00
2657;DHT22;1338;48.176;11.792;2023-03-11T11:52:56;3.90;1.00
2657;DHT22;1338;48.176;11.792;2023-03-11T11:55:29;3.30;1.00
2657;DHT22;1338;48.176;11.792;2023-03-11T11:57:58;3.40;1.00
2657;DHT22;1338;48.176;11.792;2023-03-11T12:00:32;3.70;1.00
2657;DHT22;1338;48.176;11.792;2023-03-11T12:03:27;3.50;1.00
2657;DHT22;1338;48.176;11.792;2023-03-11T12:06:01;4.30;1.00
2657;DHT22;1338;48.176;11.792;2023-03-11T12:08:38;3.70;1.00
2657;DHT22;1338;48.176;11.792;2023-03-11T12:11:15;4.30;1.00
2657;DHT22;1338;48.176;11.792;2023-03-11T12:13:50;3.60;1.00
2657;DHT22;1338;48.176;11.792;2023-03-11T12:16:28;4.00;1.00
2657;DHT22;1338;48.176;11.792;2023-03-11T12:19:03;4.50;1.00
2657;DHT22;1338;48.176;11.792;2023-03-11T12:21:52;4.70;1.00
2657;DHT22;1338;48.176;11.792;2023-03-11T12:24:43;4.40;1.00
2657;DHT22;1338;48.176;11.792;2023-03-11T12:27:22;4.70;1.00
2657;DHT22;1338;48.176;11.792;2023-03-11T12:29:56;5.20;1.00
2657;DHT22;1338;48.176;11.792;2023-03-11T12:32:32;4.80;1.00
2657;DHT22;1338;48.176;11.792;2023-03-11T12:35:08;4.90;1.00
2657;DHT22;1338;48.176;11.792;2023-03-11T12:37:39;4.30;1.00
2657;DHT22;1338;48.176;11.792;2023-03-11T12:40:37;4.00;1.00
2657;DHT22;1338;48.176;11.792;2023-03-11T12:43:59;4.60;1.00
2657;DHT22;1338;48.176;11.792;2023-03-11T12:49:37;4.70;1.00
2657;DHT22;1338;48.176;11.792;2023-03-11T12:58:36;5.30;1.00
2657;DHT22;1338;48.176;11.792;2023-03-11T13:01:33;5.50;1.00
2657;DHT22;1338;48.176;11.792;2023-03-11T13:04:18;5.30;1.00
2657;DHT22;1338;48.176;11.792;2023-03-11T13:07:07;4.90;1.00
2657;DHT22;1338;48.176;11.792;2023-03-11T13:09:42;4.80;1.00
2657;DHT22;1338;48.176;11.792;2023-03-11T13:12:37;4.90;1.00
2657;DHT22;1338;48.176;11.792;2023-03-11T13:15:28;4.60;1.00
2657;DHT22;1338;48.176;11.792;2023-03-11T13:18:02;4.60;1.00
2657;DHT22;1338;48.176;11.792;2023-03-11T13:20:55;4.80;1.00
2657;DHT22;1338;48.176;11.792;2023-03-11T13:23:34;5.70;1.00
2657;DHT22;1338;48.176;11.792;2023-03-11T13:26:21;4.70;1.00
2657;DHT22;1338;48.176;11.792;2023-03-11T13:32:16;5.20;1.00
2657;DHT22;1338;48.176;11.792;2023-03-11T13:35:10;5.30;1.00
2657;DHT22;1338;48.176;11.792;2023-03-11T13:37:47;5.80;1.00
2657;DHT22;1338;48.176;11.792;2023-03-11T13:40:28;5.70;1.00
2657;DHT22;1338;48.176;11.792;2023-03-11T13:43:01;5.50;1.00
2657;DHT22;1338;48.176;11.792;2023-03-11T13:45:32;5.20;1.00
2657;DHT22;1338;48.176;11.792;2023-03-11T13:48:06;5.10;1.00
2657;DHT22;1338;48.176;11.792;2023-03-11T13:50:38;5.70;1.00
2657;DHT22;1338;48.176;11.792;2023-03-11T13:53:16;5.60;1.00
2657;DHT22;1338;48.176;11.792;2023-03-11T13:55:47;5.70;1.00
2657;DHT22;1338;48.176;11.792;2023-03-11T13:58:20;6.70;1.00
2657;DHT22;1338;48.176;11.792;2023-03-11T14:00:52;7.20;1.00
2657;DHT22;1338;48.176;11.792;2023-03-11T14:03:22;6.30;1.00
2657;DHT22;1338;48.176;11.792;2023-03-11T14:05:57;6.10;1.00
2657;DHT22;1338;48.176;11.792;2023-03-11T14:08:29;4.90;1.00
2657;DHT22;1338;48.176;11.792;2023-03-11T14:11:00;5.50;1.00
2657;DHT22;1338;48.176;11.792;2023-03-11T14:13:31;5.80;1.00
2657;DHT22;1338;48.176;11.792;2023-03-11T14:16:04;5.40;1.00
2657;DHT22;1338;48.176;11.792;2023-03-11T14:18:36;5.50;1.00
2657;DHT22;1338;48.176;11.792;2023-03-11T14:21:11;6.30;1.00
2657;DHT22;1338;48.176;11.792;2023-03-11T14:23:43;6.20;1.00
2657;DHT22;1338;48.176;11.792;2023-03-11T14:26:13;6.00;1.00
2657;DHT22;1338;48.176;11.792;2023-03-11T14:28:46;6.20;1.00
2657;DHT22;1338;48.176;11.792;2023-03-11T14:31:28;6.90;1.00
2657;DHT22;1338;48.176;11.792;2023-03-11T14:33:58;7.30;1.00
2657;DHT22;1338;48.176;11.792;2023-03-11T14:36:38;7.20;1.00
2657;DHT22;1338;48.176;11.792;2023-03-11T14:39:22;6.10;1.00
2657;DHT22;1338;48.176;11.792;2023-03-11T14:41:53;7.30;1.00
2657;DHT22;1338;48.176;11.792;2023-03-11T14:44:30;7.70;1.00
2657;DHT22;1338;48.176;11.792;2023-03-11T14:47:05;7.90;1.00
2657;DHT22;1338;48.176;11.792;2023-03-11T14:49:36;6.20;1.00
2657;DHT22;1338;48.176;11.792;2023-03-11T14:52:09;6.50;1.00
2657;DHT22;1338;48.176;11.792;2023-03-11T14:54:42;6.60;1.00
2657;DHT22;1338;48.176;11.792;2023-03-11T14:57:18;6.50;1.00
2657;DHT22;1338;48.176;11.792;2023-03-11T14:59:52;7.00;1.00
2657;DHT22;1338;48.176;11.792;2023-03-11T15:02:34;7.60;1.00
2657;DHT22;1338;48.176;11.792;2023-03-11T15:05:10;5.80;1.00
2657;DHT22;1338;48.176;11.792;2023-03-11T15:07:41;6.60;1.00
2657;DHT22;1338;48.176;11.792;2023-03-11T15:10:12;7.50;1.00
2657;DHT22;1338;48.176;11.792;2023-03-11T15:12:42;7.00;1.00
2657;DHT22;1338;48.176;11.792;2023-03-11T15:15:31;6.70;1.00
2657;DHT22;1338;48.176;11.792;2023-03-11T15:18:00;7.10;1.00
2657;DHT22;1338;48.176;11.792;2023-03-11T15:20:32;5.60;1.00
2657;DHT22;1338;48.176;11.792;2023-03-11T15:23:03;5.70;1.00
2657;DHT22;1338;48.176;11.792;2023-03-11T15:25:34;6.10;1.00
2657;DHT22;1338;48.176;11.792;2023-03-11T15:28:20;5.70;1.00
2657;DHT22;1338;48.176;11.792;2023-03-11T15:34:26;5.90;1.00
2657;DHT22;1338;48.176;11.792;2023-03-11T15:37:18;6.30;1.00
2657;DHT22;1338;48.176;11.792;2023-03-11T15:39:49;6.00;1.00
2657;DHT22;1338;48.176;11.792;2023-03-11T15:42:24;7.20;1.00
2657;DHT22;1338;48.176;11.792;2023-03-11T15:45:12;7.00;1.00
2657;DHT22;1338;48.176;11.792;2023-03-11T15:47:46;7.80;1.00
2657;DHT22;1338;48.176;11.792;2023-03-11T15:50:21;5.70;1.00
2657;DHT22;1338;48.176;11.792;2023-03-11T15:52:58;5.10;1.00
2657;DHT22;1338;48.176;11.792;2023-03-11T15:55:26;4.70;1.00
2657;DHT22;1338;48.176;11.792;2023-03-11T15:58:00;4.90;1.00
2657;DHT22;1338;48.176;11.792;2023-03-11T16:00:30;4.30;1.00
2657;DHT22;1338;48.176;11.792;2023-03-11T16:03:02;3.70;1.00
2657;DHT22;1338;48.176;11.792;2023-03-11T16:05:31;3.90;1.00
2657;DHT22;1338;48.176;11.792;2023-03-11T16:08:00;3.70;1.00
2657;DHT22;1338;48.176;11.792;2023-03-11T16:10:29;3.30;1.00
2657;DHT22;1338;48.176;11.792;2023-03-11T16:12:58;3.20;1.00
2657;DHT22;1338;48.176;11.792;2023-03-11T16:15:28;3.20;1.00
2657;DHT22;1338;48.176;11.792;2023-03-11T16:18:03;3.10;1.00
2657;DHT22;1338;48.176;11.792;2023-03-11T16:20:36;3.20;1.00
2657;DHT22;1338;48.176;11.792;2023-03-11T16:23:10;3.60;1.00
2657;DHT22;1338;48.176;11.792;2023-03-11T16:25:40;4.30;1.00
2657;DHT22;1338;48.176;11.792;2023-03-11T16:28:12;4.00;1.00
2657;DHT22;1338;48.176;11.792;2023-03-11T16:30:42;3.90;1.00
2657;DHT22;1338;48.176;11.792;2023-03-11T16:33:13;3.80;1.00
2657;DHT22;1338;48.176;11.792;2023-03-11T16:35:41;3.90;1.00
2657;DHT22;1338;48.176;11.792;2023-03-11T16:38:10;4.10;1.00
2657;DHT22;1338;48.176;11.792;2023-03-11T16:40:39;4.30;1.00
2657;DHT22;1338;48.176;11.792;2023-03-11T16:43:09;4.30;1.00
2657;DHT22;1338;48.176;11.792;2023-03-11T16:45:39;4.10;1.00
2657;DHT22;1338;48.176;11.792;2023-03-11T16:48:08;4.60;1.00
2657;DHT22;1338;48.176;11.792;2023-03-11T16:50:38;4.80;1.00
2657;DHT22;1338;48.176;11.792;2023-03-11T16:53:08;4.80;1.00
2657;DHT22;1338;48.176;11.792;2023-03-11T16:55:37;4.50;1.00
2657;DHT22;1338;48.176;11.792;2023-03-11T16:58:05;4.30;1.00
2657;DHT22;1338;48.176;11.792;2023-03-11T17:00:34;4.20;1.00
2657;DHT22;1338;48.176;11.792;2023-03-11T17:03:03;4.00;1.00
2657;DHT22;1338;48.176;11.792;2023-03-11T17:05:33;4.50;1.00
2657;DHT22;1338;48.176;11.792;2023-03-11T17:08:04;3.40;1.00